Time;durP1;ratioP1;P1;durP2;ratioP2;P2;SDS_P1;SDS_P2;PMS_P1;PMS_P2;Temp;Humidity;BMP_temperature;BMP_pressure;BME280_temperature;BME280_humidity;BME280_pressure;Samples;Min_cycle;Max_cycle;Signal;HPM_P1;HPM_P2
2024/04/09 00:02:27;;;;;;;12.88;10.30;;;;;;;;;;10755944;26;20403;-67
2024/04/09 00:07:21;;;;;;;10.55;9.32;;;;;;;;;;10755820;26;20024;-67
2024/04/09 00:12:21;;;;;;;10.50;9.40;;;;;;;;;;10752790;26;20336;-67
2024/04/09 00:17:44;;;;;;;12.70;9.75;;;;;;;;;;10756204;26;20027;-66
2024/04/09 00:22:54;;;;;;;12.32;10.98;;;;;;;;;;10752241;26;20051;-66
2024/04/09 00:27:53;;;;;;;13.88;9.93;;;;;;;;;;10756619;26;20019;-66
2024/04/09 00:32:51;;;;;;;12.82;9.77;;;;;;;;;;10755242;26;20085;-68
2024/04/09 00:37:51;;;;;;;13.60;10.45;;;;;;;;;;10761588;26;20083;-67
2024/04/09 00:42:49;;;;;;;19.92;15.70;;;;;;;;;;10750997;26;20340;-66
2024/04/09 00:47:44;;;;;;;19.50;15.27;;;;;;;;;;10754553;26;20001;-67
2024/04/09 00:52:41;;;;;;;18.92;16.95;;;;;;;;;;10753365;26;20000;-67
2024/04/09 00:57:36;;;;;;;17.50;15.52;;;;;;;;;;10748864;26;20016;-67
2024/04/09 01:02:31;;;;;;;18.45;15.70;;;;;;;;;;10763471;26;20008;-66
2024/04/09 01:07:25;;;;;;;15.00;13.55;;;;;;;;;;10759160;26;20448;-67
2024/04/09 01:12:20;;;;;;;13.30;11.98;;;;;;;;;;10761495;26;20032;-68
2024/04/09 01:17:15;;;;;;;17.65;15.65;;;;;;;;;;10761095;26;20014;-66
2024/04/09 01:22:09;;;;;;;16.40;14.80;;;;;;;;;;10758157;26;20012;-67
2024/04/09 01:27:05;;;;;;;19.33;16.42;;;;;;;;;;10760267;26;20092;-68
2024/04/09 01:31:58;;;;;;;19.20;17.27;;;;;;;;;;10747586;26;20398;-66
2024/04/09 01:36:55;;;;;;;18.40;16.60;;;;;;;;;;10754977;26;20337;-67
2024/04/09 01:41:50;;;;;;;17.13;15.48;;;;;;;;;;10747918;26;20052;-66
2024/04/09 01:46:48;;;;;;;18.80;16.83;;;;;;;;;;10757630;26;20077;-67
2024/04/09 01:51:43;;;;;;;18.08;16.15;;;;;;;;;;10754280;26;20008;-66
2024/04/09 01:56:37;;;;;;;20.83;16.27;;;;;;;;;;10692497;26;20342;-67
2024/04/09 02:01:33;;;;;;;18.55;16.00;;;;;;;;;;10688839;26;20024;-67
2024/04/09 02:06:28;;;;;;;19.85;17.88;;;;;;;;;;10690107;26;20015;-68
2024/04/09 02:11:26;;;;;;;18.63;16.63;;;;;;;;;;10689396;26;20005;-67
2024/04/09 02:16:25;;;;;;;21.17;18.40;;;;;;;;;;10692024;26;20005;-68
2024/04/09 02:21:22;;;;;;;19.27;17.33;;;;;;;;;;10688021;26;20012;-66
2024/04/09 02:26:38;;;;;;;22.17;18.73;;;;;;;;;;10689118;26;20012;-66
2024/04/09 02:31:32;;;;;;;17.92;16.17;;;;;;;;;;10681444;26;20005;-67
2024/04/09 02:36:27;;;;;;;19.23;16.80;;;;;;;;;;10688124;26;20055;-66
2024/04/09 02:41:23;;;;;;;18.20;16.30;;;;;;;;;;10681370;26;20010;-67
2024/04/09 02:46:18;;;;;;;20.88;18.75;;;;;;;;;;10683830;26;20340;-66
2024/04/09 02:51:13;;;;;;;19.83;17.80;;;;;;;;;;10688783;26;20017;-66
2024/04/09 02:56:09;;;;;;;19.83;17.13;;;;;;;;;;10750073;26;20040;-67
2024/04/09 03:01:06;;;;;;;17.98;16.15;;;;;;;;;;10755290;26;20004;-67
2024/04/09 03:06:13;;;;;;;22.50;20.10;;;;;;;;;;10747177;26;20004;-65
2024/04/09 03:11:18;;;;;;;20.03;17.93;;;;;;;;;;10759586;26;20026;-68
2024/04/09 03:16:16;;;;;;;20.33;18.00;;;;;;;;;;10767500;26;20361;-66
2024/04/09 03:21:11;;;;;;;19.48;17.35;;;;;;;;;;10758842;26;20015;-67
2024/04/09 03:26:06;;;;;;;20.80;17.08;;;;;;;;;;10760670;26;20329;-69
2024/04/09 03:31:02;;;;;;;18.45;15.85;;;;;;;;;;10754772;26;20015;-67
2024/04/09 03:35:59;;;;;;;16.63;14.88;;;;;;;;;;10760552;26;20012;-67
2024/04/09 03:40:58;;;;;;;17.38;15.27;;;;;;;;;;10757043;26;20004;-66
2024/04/09 03:46:03;;;;;;;20.67;16.55;;;;;;;;;;10755467;26;20429;-66
2024/04/09 03:50:58;;;;;;;20.27;17.10;;;;;;;;;;10757003;26;20070;-66
2024/04/09 03:56:18;;;;;;;19.23;15.88;;;;;;;;;;10758233;26;20394;-66
2024/04/09 04:01:12;;;;;;;17.33;15.25;;;;;;;;;;10736632;26;20086;-66
2024/04/09 04:06:06;;;;;;;15.98;14.48;;;;;;;;;;10757169;26;20336;-67
2024/04/09 04:11:02;;;;;;;15.35;13.88;;;;;;;;;;10760559;26;20000;-67
2024/04/09 04:16:04;;;;;;;16.70;15.10;;;;;;;;;;10764519;26;20078;-67
2024/04/09 04:20:58;;;;;;;20.63;15.10;;;;;;;;;;10763807;26;20015;-66
2024/04/09 04:26:02;;;;;;;16.63;15.02;;;;;;;;;;10761891;26;20090;-66
2024/04/09 04:30:56;;;;;;;18.88;15.30;;;;;;;;;;10765039;26;20014;-65
2024/04/09 04:35:51;;;;;;;19.92;17.80;;;;;;;;;;10760778;26;20000;-66
2024/04/09 04:40:46;;;;;;;20.42;15.77;;;;;;;;;;10749516;26;20004;-66
2024/04/09 04:45:41;;;;;;;17.77;15.90;;;;;;;;;;10761832;26;20498;-68
2024/04/09 04:50:36;;;;;;;18.42;16.40;;;;;;;;;;10760142;26;20018;-67
2024/04/09 04:55:34;;;;;;;20.23;18.15;;;;;;;;;;10748857;26;20409;-67
2024/04/09 05:00:45;;;;;;;21.23;18.10;;;;;;;;;;10754090;26;20022;-68
2024/04/09 05:05:40;;;;;;;25.00;20.92;;;;;;;;;;10760486;26;20000;-66
2024/04/09 05:10:33;;;;;;;26.98;20.10;;;;;;;;;;10765236;26;20054;-66
2024/04/09 05:15:28;;;;;;;22.70;19.75;;;;;;;;;;10773228;26;20453;-66
2024/04/09 05:20:28;;;;;;;21.13;18.92;;;;;;;;;;10760955;26;20082;-66
2024/04/09 05:25:24;;;;;;;24.25;20.27;;;;;;;;;;10764306;26;20016;-66
2024/04/09 05:30:19;;;;;;;25.80;20.60;;;;;;;;;;10765719;26;20005;-67
2024/04/09 05:35:14;;;;;;;24.02;21.25;;;;;;;;;;10759407;26;20015;-67
2024/04/09 05:40:09;;;;;;;24.65;20.83;;;;;;;;;;10758947;26;20320;-66
2024/04/09 05:45:04;;;;;;;24.95;22.45;;;;;;;;;;10759370;26;20004;-66
2024/04/09 05:49:58;;;;;;;26.50;23.85;;;;;;;;;;10763040;26;20044;-66
2024/04/09 05:54:54;;;;;;;35.88;26.77;;;;;;;;;;10764727;26;20032;-66
2024/04/09 05:59:50;;;;;;;27.70;24.58;;;;;;;;;;10763070;26;20487;-66
2024/04/09 06:04:44;;;;;;;29.25;23.17;;;;;;;;;;10757881;26;20345;-66
2024/04/09 06:09:39;;;;;;;24.23;21.75;;;;;;;;;;10761719;26;20371;-66
2024/04/09 06:14:33;;;;;;;20.65;18.45;;;;;;;;;;10778916;26;20019;-66
2024/04/09 06:19:27;;;;;;;21.10;19.13;;;;;;;;;;10751093;26;20090;-66
2024/04/09 06:24:22;;;;;;;22.20;19.23;;;;;;;;;;10761898;26;20016;-65
2024/04/09 06:29:17;;;;;;;26.42;18.58;;;;;;;;;;10741349;26;20005;-66
2024/04/09 06:34:11;;;;;;;26.65;18.08;;;;;;;;;;10753071;26;20122;-66
2024/04/09 06:39:05;;;;;;;25.08;19.45;;;;;;;;;;10753736;26;20008;-65
2024/04/09 06:43:59;;;;;;;30.77;22.23;;;;;;;;;;10748496;26;20004;-66
2024/04/09 06:48:54;;;;;;;27.02;23.80;;;;;;;;;;10747456;26;20110;-66
2024/04/09 06:53:49;;;;;;;34.92;25.83;;;;;;;;;;10761282;26;20000;-66
2024/04/09 06:58:47;;;;;;;39.83;25.85;;;;;;;;;;10761496;26;20083;-65
2024/04/09 07:03:41;;;;;;;35.42;26.05;;;;;;;;;;10761657;26;20460;-65
2024/04/09 07:08:35;;;;;;;47.72;29.35;;;;;;;;;;10762449;26;20004;-65
2024/04/09 07:13:31;;;;;;;32.17;28.77;;;;;;;;;;10773660;26;20004;-66
2024/04/09 07:18:31;;;;;;;31.98;28.70;;;;;;;;;;10759802;26;20521;-65
2024/04/09 07:23:28;;;;;;;35.40;30.30;;;;;;;;;;10761393;26;20352;-64
2024/04/09 07:28:23;;;;;;;33.67;28.35;;;;;;;;;;10760570;26;20011;-65
2024/04/09 07:33:17;;;;;;;30.10;26.85;;;;;;;;;;10759890;26;20000;-65
2024/04/09 07:38:12;;;;;;;39.67;30.30;;;;;;;;;;10759844;26;20106;-65
2024/04/09 07:43:08;;;;;;;41.85;35.13;;;;;;;;;;10759921;26;20453;-65
2024/04/09 07:48:03;;;;;;;54.25;41.88;;;;;;;;;;10760153;26;20375;-65
2024/04/09 07:52:57;;;;;;;45.88;39.88;;;;;;;;;;10758008;26;20015;-65
2024/04/09 07:57:53;;;;;;;47.58;39.38;;;;;;;;;;10759971;26;20085;-65
2024/04/09 08:02:47;;;;;;;39.90;35.53;;;;;;;;;;10754775;26;20414;-65
2024/04/09 08:07:41;;;;;;;41.00;36.70;;;;;;;;;;10759719;26;20449;-65
2024/04/09 08:12:35;;;;;;;41.63;37.17;;;;;;;;;;10775138;26;20005;-66
2024/04/09 08:17:30;;;;;;;46.63;41.58;;;;;;;;;;10752721;26;20019;-66
2024/04/09 08:22:25;;;;;;;54.78;48.90;;;;;;;;;;10750098;26;20004;-66
2024/04/09 08:27:19;;;;;;;51.85;46.50;;;;;;;;;;10752859;26;20012;-66
2024/04/09 08:32:13;;;;;;;43.70;39.55;;;;;;;;;;10742162;26;20033;-68
2024/04/09 08:37:07;;;;;;;58.85;48.70;;;;;;;;;;10758530;26;20008;-64
2024/04/09 08:42:02;;;;;;;56.58;50.67;;;;;;;;;;10758510;26;20082;-65
2024/04/09 08:46:58;;;;;;;56.95;46.33;;;;;;;;;;10758399;26;20018;-64
2024/04/09 08:51:54;;;;;;;47.08;42.20;;;;;;;;;;10758341;26;20004;-64
2024/04/09 08:56:48;;;;;;;54.97;49.22;;;;;;;;;;10758382;26;20004;-65
2024/04/09 09:01:43;;;;;;;57.88;51.60;;;;;;;;;;10760396;26;20368;-65
2024/04/09 09:06:46;;;;;;;59.38;53.22;;;;;;;;;;10760320;26;20004;-64
2024/04/09 09:11:41;;;;;;;60.25;53.80;;;;;;;;;;10753926;26;20445;-66
2024/04/09 09:16:38;;;;;;;64.82;55.65;;;;;;;;;;10759062;26;20023;-65
2024/04/09 09:21:32;;;;;;;62.47;55.97;;;;;;;;;;10753452;26;20000;-64
2024/04/09 09:26:27;;;;;;;60.15;53.83;;;;;;;;;;10760794;26;20019;-65
2024/04/09 09:31:41;;;;;;;56.55;50.17;;;;;;;;;;10752414;26;20004;-65
2024/04/09 09:36:36;;;;;;;55.20;44.10;;;;;;;;;;10742944;26;20506;-65
2024/04/09 09:41:31;;;;;;;49.58;44.20;;;;;;;;;;10757930;26;20004;-66
2024/04/09 09:46:25;;;;;;;44.90;39.58;;;;;;;;;;10740745;26;20004;-65
2024/04/09 09:51:20;;;;;;;41.20;37.15;;;;;;;;;;10735742;26;20016;-65
2024/04/09 09:56:15;;;;;;;40.67;33.78;;;;;;;;;;10755940;26;20352;-64
2024/04/09 10:01:10;;;;;;;41.97;34.38;;;;;;;;;;10754542;26;20001;-65
2024/04/09 10:06:05;;;;;;;37.70;33.90;;;;;;;;;;10741652;26;20081;-66
2024/04/09 10:11:04;;;;;;;38.50;32.25;;;;;;;;;;10740938;26;20016;-63
2024/04/09 10:16:03;;;;;;;40.72;35.25;;;;;;;;;;10758556;26;20501;-65
2024/04/09 10:20:57;;;;;;;38.13;33.83;;;;;;;;;;10745329;26;20707;-65
2024/04/09 10:25:51;;;;;;;37.67;28.90;;;;;;;;;;10760492;26;20406;-66
2024/04/09 10:30:46;;;;;;;34.55;30.83;;;;;;;;;;10754933;26;20032;-66
2024/04/09 10:35:43;;;;;;;32.25;28.23;;;;;;;;;;10756717;26;20005;-66
2024/04/09 10:40:36;;;;;;;35.28;28.42;;;;;;;;;;10757554;26;20142;-65
2024/04/09 10:45:31;;;;;;;37.13;29.25;;;;;;;;;;10751079;26;20035;-66
2024/04/09 10:50:29;;;;;;;32.78;27.77;;;;;;;;;;10757886;26;20530;-65
2024/04/09 10:55:23;;;;;;;35.40;28.65;;;;;;;;;;10744217;26;20008;-65
2024/04/09 11:00:20;;;;;;;36.63;29.55;;;;;;;;;;10749959;26;20045;-65
2024/04/09 11:05:17;;;;;;;32.55;25.88;;;;;;;;;;10752145;26;20482;-65
2024/04/09 11:10:12;;;;;;;36.90;28.77;;;;;;;;;;10754029;26;20329;-66
2024/04/09 11:15:10;;;;;;;32.95;27.98;;;;;;;;;;10753016;26;20000;-65
2024/04/09 11:20:10;;;;;;;30.40;25.85;;;;;;;;;;10755283;26;20078;-65
2024/04/09 11:25:04;;;;;;;41.28;30.67;;;;;;;;;;10756828;26;20066;-65
2024/04/09 11:29:59;;;;;;;37.38;28.85;;;;;;;;;;10754289;26;20309;-66
2024/04/09 11:34:54;;;;;;;35.80;29.42;;;;;;;;;;10754396;26;20037;-65
2024/04/09 11:39:48;;;;;;;30.10;25.58;;;;;;;;;;10747469;26;20440;-66
2024/04/09 11:44:42;;;;;;;30.00;25.15;;;;;;;;;;10753941;26;20000;-65
2024/04/09 11:49:36;;;;;;;29.25;25.60;;;;;;;;;;10748930;26;20004;-64
2024/04/09 11:54:30;;;;;;;33.35;26.88;;;;;;;;;;10739964;26;20012;-65
2024/04/09 11:59:25;;;;;;;30.83;26.73;;;;;;;;;;10755878;26;20019;-66
2024/04/09 12:04:20;;;;;;;31.10;26.58;;;;;;;;;;10752418;26;20321;-65
2024/04/09 12:09:14;;;;;;;31.38;26.02;;;;;;;;;;10751003;26;20019;-65
2024/04/09 12:14:08;;;;;;;29.08;24.38;;;;;;;;;;10764132;26;20511;-65
2024/04/09 12:19:03;;;;;;;31.27;23.92;;;;;;;;;;10748347;26;20440;-65
2024/04/09 12:23:58;;;;;;;30.15;26.40;;;;;;;;;;10739082;26;20004;-65
2024/04/09 12:28:57;;;;;;;33.05;28.80;;;;;;;;;;10750105;26;20001;-66
2024/04/09 12:33:52;;;;;;;35.22;26.65;;;;;;;;;;10761634;26;20011;-66
2024/04/09 12:38:46;;;;;;;28.58;25.42;;;;;;;;;;10758582;26;20004;-65
2024/04/09 12:43:41;;;;;;;26.80;23.05;;;;;;;;;;10763067;26;20018;-66
2024/04/09 12:48:35;;;;;;;29.00;24.52;;;;;;;;;;10761895;26;20016;-66
2024/04/09 12:53:30;;;;;;;26.52;23.23;;;;;;;;;;10760536;26;20006;-65
2024/04/09 12:58:25;;;;;;;26.75;24.17;;;;;;;;;;10759773;26;20015;-65
2024/04/09 13:03:18;;;;;;;21.70;19.40;;;;;;;;;;10760479;26;20336;-65
2024/04/09 13:08:12;;;;;;;24.85;21.80;;;;;;;;;;10761586;26;20440;-65
2024/04/09 13:13:07;;;;;;;27.45;22.02;;;;;;;;;;10770334;26;20004;-66
2024/04/09 13:18:01;;;;;;;25.23;22.45;;;;;;;;;;10760445;26;20078;-66
2024/04/09 13:22:56;;;;;;;24.80;22.40;;;;;;;;;;10760471;26;20082;-66
2024/04/09 13:27:51;;;;;;;24.77;21.25;;;;;;;;;;10760445;26;20004;-65
2024/04/09 13:32:46;;;;;;;24.15;21.60;;;;;;;;;;10752240;26;20004;-65
2024/04/09 13:37:43;;;;;;;24.80;22.15;;;;;;;;;;10760200;26;20444;-65
2024/04/09 13:42:43;;;;;;;24.98;22.40;;;;;;;;;;10761156;26;20436;-65
2024/04/09 13:47:38;;;;;;;28.77;25.95;;;;;;;;;;10760047;26;20004;-66
2024/04/09 13:52:34;;;;;;;25.85;23.08;;;;;;;;;;10758688;26;20440;-66
2024/04/09 13:57:29;;;;;;;28.65;23.33;;;;;;;;;;10757642;26;20011;-66
2024/04/09 14:02:23;;;;;;;25.63;22.73;;;;;;;;;;10758336;26;20090;-66
2024/04/09 14:07:18;;;;;;;24.48;22.23;;;;;;;;;;10757537;26;20011;-66
2024/04/09 14:12:12;;;;;;;25.20;22.60;;;;;;;;;;10756822;26;20004;-66
2024/04/09 14:17:08;;;;;;;22.17;19.92;;;;;;;;;;10742200;26;20445;-66
2024/04/09 14:22:03;;;;;;;23.23;21.00;;;;;;;;;;10752304;26;20040;-66
2024/04/09 14:26:57;;;;;;;22.15;19.83;;;;;;;;;;10758797;26;21161;-66
2024/04/09 14:31:52;;;;;;;20.70;18.70;;;;;;;;;;10757371;26;20004;-73
2024/04/09 14:36:50;;;;;;;20.85;18.95;;;;;;;;;;10755912;26;20000;-72
2024/04/09 14:41:47;;;;;;;26.17;21.97;;;;;;;;;;10751707;26;20004;-72
2024/04/09 14:46:41;;;;;;;21.83;19.73;;;;;;;;;;10759914;26;20011;-72
2024/04/09 14:51:38;;;;;;;21.15;19.05;;;;;;;;;;10756215;26;20007;-72
2024/04/09 14:56:34;;;;;;;19.75;17.85;;;;;;;;;;10757898;26;20007;-72
2024/04/09 15:01:30;;;;;;;19.27;17.65;;;;;;;;;;10758607;26;20004;-72
2024/04/09 15:06:25;;;;;;;20.95;18.73;;;;;;;;;;10756187;26;20001;-74
2024/04/09 15:11:19;;;;;;;19.17;16.75;;;;;;;;;;10766378;26;20081;-71
2024/04/09 15:16:13;;;;;;;19.58;17.67;;;;;;;;;;10761255;26;20019;-72
2024/04/09 15:21:08;;;;;;;21.40;19.50;;;;;;;;;;10757309;26;20004;-72
2024/04/09 15:26:04;;;;;;;23.40;20.30;;;;;;;;;;10754343;26;20488;-73
2024/04/09 15:31:00;;;;;;;23.30;21.20;;;;;;;;;;10754555;26;20014;-72
2024/04/09 15:35:58;;;;;;;24.90;20.20;;;;;;;;;;10755915;26;20452;-71
2024/04/09 15:40:53;;;;;;;20.15;18.15;;;;;;;;;;10756506;26;20090;-71
2024/04/09 15:45:48;;;;;;;25.10;21.38;;;;;;;;;;10754214;26;20016;-72
2024/04/09 15:50:42;;;;;;;25.30;22.40;;;;;;;;;;10754113;26;20019;-71
2024/04/09 15:55:38;;;;;;;27.35;23.40;;;;;;;;;;10754472;26;20004;-71
2024/04/09 16:00:34;;;;;;;30.08;25.48;;;;;;;;;;10755819;26;20429;-72
2024/04/09 16:05:30;;;;;;;30.17;26.20;;;;;;;;;;10754868;26;20329;-73
2024/04/09 16:10:26;;;;;;;28.52;25.48;;;;;;;;;;10756389;26;20325;-66
2024/04/09 16:15:20;;;;;;;25.23;22.52;;;;;;;;;;10743320;26;20017;-66
2024/04/09 16:20:15;;;;;;;28.90;23.75;;;;;;;;;;10755518;26;20014;-66
2024/04/09 16:25:08;;;;;;;29.92;21.38;;;;;;;;;;10754781;26;20431;-66
2024/04/09 16:30:04;;;;;;;22.42;19.83;;;;;;;;;;10755538;26;20014;-66
2024/04/09 16:34:58;;;;;;;21.25;17.70;;;;;;;;;;10752864;26;20012;-67
2024/04/09 16:39:52;;;;;;;27.27;17.13;;;;;;;;;;10747886;26;19996;-66
2024/04/09 16:44:46;;;;;;;23.50;16.63;;;;;;;;;;10744698;26;20019;-66
2024/04/09 16:49:40;;;;;;;20.10;18.00;;;;;;;;;;10754539;26;20041;-66
2024/04/09 16:54:35;;;;;;;22.08;18.05;;;;;;;;;;10753498;26;20008;-66
2024/04/09 16:59:31;;;;;;;22.48;17.15;;;;;;;;;;10753337;26;20050;-66
2024/04/09 17:04:25;;;;;;;21.60;17.13;;;;;;;;;;10737986;26;20004;-67
2024/04/09 17:13:57;;;;;;;23.70;17.60;;;;;;;;;;10836892;26;20441;-68
2024/04/09 17:18:51;;;;;;;24.02;17.23;;;;;;;;;;10774263;26;20307;-67
2024/04/09 17:23:46;;;;;;;20.08;18.08;;;;;;;;;;10791789;26;20036;-66
2024/04/09 17:28:40;;;;;;;17.98;16.17;;;;;;;;;;10783680;26;20499;-65
2024/04/09 17:33:33;;;;;;;23.73;19.60;;;;;;;;;;10773233;26;20428;-66
2024/04/09 17:38:29;;;;;;;25.65;18.42;;;;;;;;;;10795983;26;20428;-66
2024/04/09 17:43:23;;;;;;;19.58;17.65;;;;;;;;;;10793096;26;20062;-68
2024/04/09 17:48:17;;;;;;;21.08;16.05;;;;;;;;;;10792190;26;20004;-65
2024/04/09 17:53:12;;;;;;;18.80;16.73;;;;;;;;;;10785702;26;20513;-66
2024/04/09 17:58:06;;;;;;;16.13;14.05;;;;;;;;;;10797314;26;20078;-66
2024/04/09 18:03:01;;;;;;;21.55;15.35;;;;;;;;;;10796170;26;20008;-66
2024/04/09 18:07:55;;;;;;;19.92;17.83;;;;;;;;;;10777942;26;20110;-66
2024/04/09 18:12:53;;;;;;;21.63;17.60;;;;;;;;;;10791918;26;20019;-66
2024/04/09 18:17:50;;;;;;;22.10;18.55;;;;;;;;;;10795919;26;20442;-66
2024/04/09 18:22:45;;;;;;;16.90;14.05;;;;;;;;;;10782235;26;20472;-66
2024/04/09 18:27:38;;;;;;;24.55;18.02;;;;;;;;;;10765334;26;20004;-66
2024/04/09 18:32:33;;;;;;;20.70;17.42;;;;;;;;;;10757971;26;20009;-65
2024/04/09 18:37:28;;;;;;;22.42;19.73;;;;;;;;;;10763012;26;20004;-66
2024/04/09 18:42:22;;;;;;;19.02;17.23;;;;;;;;;;10764812;26;20019;-66
2024/04/09 18:47:16;;;;;;;21.42;18.15;;;;;;;;;;10744495;26;20489;-66
2024/04/09 18:52:10;;;;;;;21.27;17.40;;;;;;;;;;10731582;26;20004;-66
2024/04/09 18:57:05;;;;;;;20.17;18.10;;;;;;;;;;10733832;26;20012;-67
2024/04/09 19:01:58;;;;;;;29.55;24.63;;;;;;;;;;10739374;26;20009;-67
2024/04/09 19:06:52;;;;;;;23.17;20.85;;;;;;;;;;10764970;26;20005;-65
2024/04/09 19:11:47;;;;;;;25.42;22.45;;;;;;;;;;10746910;26;20069;-65
2024/04/09 19:16:41;;;;;;;24.27;20.77;;;;;;;;;;10744966;26;20355;-66
2024/04/09 19:21:36;;;;;;;23.35;19.90;;;;;;;;;;10739694;26;20031;-67
2024/04/09 19:26:32;;;;;;;25.15;20.52;;;;;;;;;;10763748;26;20005;-66
2024/04/09 19:31:26;;;;;;;22.45;20.33;;;;;;;;;;10748557;26;20004;-66
2024/04/09 19:36:21;;;;;;;22.27;18.65;;;;;;;;;;10755641;26;20016;-66
2024/04/09 19:41:15;;;;;;;20.25;18.25;;;;;;;;;;10758911;26;20036;-67
2024/04/09 19:46:09;;;;;;;21.25;17.25;;;;;;;;;;10763941;26;20456;-67
2024/04/09 19:51:02;;;;;;;21.40;19.20;;;;;;;;;;10758633;26;20043;-66
2024/04/09 19:55:59;;;;;;;18.88;17.08;;;;;;;;;;10755403;26;20127;-67
2024/04/09 20:00:54;;;;;;;22.15;19.75;;;;;;;;;;10745019;26;20008;-66
2024/04/09 20:05:49;;;;;;;21.75;18.80;;;;;;;;;;10742130;26;20407;-67
2024/04/09 20:10:43;;;;;;;18.30;16.60;;;;;;;;;;10760449;26;20000;-68
2024/04/09 20:15:38;;;;;;;18.42;16.52;;;;;;;;;;10767322;26;20352;-66
2024/04/09 20:20:32;;;;;;;18.52;16.73;;;;;;;;;;10761851;26;20011;-66
2024/04/09 20:25:27;;;;;;;19.45;17.52;;;;;;;;;;10748857;26;20036;-66
2024/04/09 20:30:22;;;;;;;21.55;18.40;;;;;;;;;;10757341;26;20004;-66
2024/04/09 20:35:21;;;;;;;28.15;20.42;;;;;;;;;;10753181;26;20381;-67
2024/04/09 20:40:36;;;;;;;27.45;24.23;;;;;;;;;;10759320;26;20008;-66
2024/04/09 20:45:30;;;;;;;27.85;23.02;;;;;;;;;;10757636;26;20081;-67
2024/04/09 20:50:27;;;;;;;41.80;18.58;;;;;;;;;;10761713;26;20016;-68
2024/04/09 20:55:21;;;;;;;18.67;16.73;;;;;;;;;;10761659;26;20019;-67
2024/04/09 21:00:16;;;;;;;21.05;18.55;;;;;;;;;;10761159;26;20015;-67
2024/04/09 21:05:10;;;;;;;21.40;19.10;;;;;;;;;;10756380;26;20004;-67
2024/04/09 21:10:07;;;;;;;21.63;19.33;;;;;;;;;;10759714;26;20005;-66
2024/04/09 21:15:03;;;;;;;23.07;20.67;;;;;;;;;;10773954;26;20024;-67
2024/04/09 21:19:58;;;;;;;20.63;18.27;;;;;;;;;;10741204;26;20127;-65
2024/04/09 21:24:52;;;;;;;26.33;21.35;;;;;;;;;;10758489;26;20015;-66
2024/04/09 21:29:45;;;;;;;25.25;22.60;;;;;;;;;;10739181;26;20059;-67
2024/04/09 21:34:40;;;;;;;27.50;24.70;;;;;;;;;;10746813;26;20425;-66
2024/04/09 21:39:34;;;;;;;22.48;19.95;;;;;;;;;;10757225;26;20015;-67
2024/04/09 21:44:28;;;;;;;18.45;16.70;;;;;;;;;;10750725;26;20528;-67
2024/04/09 21:49:23;;;;;;;21.80;18.48;;;;;;;;;;10733089;26;20004;-66
2024/04/09 21:54:17;;;;;;;21.95;19.58;;;;;;;;;;10746953;26;20005;-66
2024/04/09 21:59:10;;;;;;;24.00;19.98;;;;;;;;;;10759498;26;20009;-66
2024/04/09 22:04:05;;;;;;;22.83;20.20;;;;;;;;;;10763155;26;20053;-66
2024/04/09 22:09:00;;;;;;;23.35;20.85;;;;;;;;;;10767419;26;20004;-66
2024/04/09 22:13:55;;;;;;;21.02;18.92;;;;;;;;;;10765476;26;20456;-66
2024/04/09 22:18:54;;;;;;;22.02;19.67;;;;;;;;;;10766428;26;20004;-65
2024/04/09 22:23:49;;;;;;;21.80;18.25;;;;;;;;;;10766686;26;20024;-66
2024/04/09 22:28:43;;;;;;;19.45;17.55;;;;;;;;;;10766636;26;20040;-67
2024/04/09 22:33:37;;;;;;;23.98;18.40;;;;;;;;;;10761839;26;20008;-66
2024/04/09 22:38:31;;;;;;;20.20;17.23;;;;;;;;;;10734161;26;20004;-66
2024/04/09 22:43:26;;;;;;;18.75;16.88;;;;;;;;;;10750467;26;20004;-66
2024/04/09 22:48:21;;;;;;;21.92;18.10;;;;;;;;;;10765171;26;20445;-66
2024/04/09 22:53:14;;;;;;;21.92;19.60;;;;;;;;;;10748572;26;20019;-66
2024/04/09 22:58:08;;;;;;;21.13;18.27;;;;;;;;;;10764814;26;20004;-66
2024/04/09 23:03:06;;;;;;;22.45;20.17;;;;;;;;;;10749154;26;20016;-66
2024/04/09 23:08:00;;;;;;;28.48;20.30;;;;;;;;;;10764468;26;20032;-66
2024/04/09 23:12:55;;;;;;;20.10;18.10;;;;;;;;;;10784500;26;20012;-66
2024/04/09 23:17:49;;;;;;;24.05;19.55;;;;;;;;;;10764400;26;20004;-66
2024/04/09 23:22:44;;;;;;;19.77;17.63;;;;;;;;;;10764306;26;20014;-66
2024/04/09 23:27:40;;;;;;;19.00;17.10;;;;;;;;;;10764217;26;20035;-64
2024/04/09 23:32:34;;;;;;;18.88;16.85;;;;;;;;;;10738795;26;20007;-67
2024/04/09 23:37:29;;;;;;;20.92;18.73;;;;;;;;;;10753189;26;20036;-66
2024/04/09 23:42:23;;;;;;;21.55;19.25;;;;;;;;;;10761424;26;20332;-66
2024/04/09 23:47:18;;;;;;;24.73;20.50;;;;;;;;;;10759717;26;20004;-66
2024/04/09 23:52:12;;;;;;;25.10;20.95;;;;;;;;;;10760087;26;20004;-66
2024/04/09 23:57:06;;;;;;;23.80;19.85;;;;;;;;;;10761829;26;20018;-66
